Pagrindinis puslapis
METAR-TAF:

METAR-TAF

Oro uostai :

Žešuvas, Lenkija

platuma: 50-06N, ilguma: 022-03E, Aukštis: 200 m

Dabartinis oras

Ataskaita buvo paskelbta 32 minutes, ne 05:30 UTC
Vėjas 6 kt iš Pietvakarių
Temperatūra -3°C
Drėgmė 93%
Slėgis 1023 hPa
Matomumas: 5000 m
rūkana

METAR: EPRZ 010530Z 23006KT 5000 BR NSC M03/M04 Q1023

Laikas: 08:02 (06:02 UTC)

Prognozė

Ataskaita buvo paskelbta 32 minutes, ne 05:30 UTC
Prognozė galioja nuo 01 metu 06 UTC su 02 metu 06 UTC
Vėjas 6 kt iš Vakarų/Pietvakarių
Matomumas 10 km arba daugiau
nėra debesų žemiau 1500 m ir nėra kamuolinių lietaus debesų
Laikinai
nuo 01 metu 06 UTC su 01 metu 07 UTC
Matomumas: 4000 m
rūkana
Laikinai
nuo 01 metu 09 UTC su 01 metu 16 UTC
Išsisklaidę debesys ne aukštis 4000 ft, aukštai iškilę kamuoliniai debesys.

TAF: EPRZ 010530Z 0106/0206 25006KT CAVOK TEMPO 0106/0107 4000 BR TEMPO 0109/0116 SCT040TCU

Orai ataskaitas ir orų prognozės (METAR, TAF).

turimą stotys yra geltonos ir raudonos taškus žemėlapyje.

Perkelti pele per norėdami pamatyti stoties vardą.

Tada spustelėkite, norėdami matyti oro stebėjimo ir prognozės.

Norėdami pakeisti žemėlapį: spustelėkite ant žalios mygtukų su juodo kryžiaus žemyn,; žalią mygtuką su brūkšneliu, jei norite nutolinti; arba žalių rodyklių gretimoms žemėlapius.


METAR-TAF: